createdAt,value
2023-04-29T00:00:40.943Z,26.10
2023-04-29T00:01:41.879Z,29.00
2023-04-29T00:02:40.937Z,30.60
2023-04-29T00:03:41.021Z,30.00
2023-04-29T00:04:40.967Z,32.70
2023-04-29T00:05:40.906Z,29.80
2023-04-29T00:06:40.836Z,30.60
2023-04-29T00:07:40.819Z,30.80
2023-04-29T00:08:42.402Z,29.80
2023-04-29T00:09:41.822Z,31.30
2023-04-29T00:10:40.828Z,29.30
2023-04-29T00:11:40.829Z,27.00
2023-04-29T00:12:40.984Z,32.30
2023-04-29T00:13:40.872Z,33.10
2023-04-29T00:14:40.768Z,32.60
2023-04-29T00:15:40.804Z,30.00
2023-04-29T00:16:40.798Z,32.40
2023-04-29T00:17:40.796Z,27.40
2023-04-29T00:18:40.742Z,30.90
2023-04-29T00:19:40.739Z,28.50
2023-04-29T00:20:40.743Z,30.80
2023-04-29T00:21:40.758Z,33.00
2023-04-29T00:22:40.844Z,38.40
2023-04-29T00:23:40.699Z,35.30
2023-04-29T00:24:40.731Z,34.00
2023-04-29T00:25:40.686Z,33.10
2023-04-29T00:26:40.678Z,36.00
2023-04-29T00:27:40.683Z,35.20
2023-04-29T00:28:40.684Z,38.20
2023-04-29T00:29:40.677Z,37.00
2023-04-29T00:30:40.679Z,39.50
2023-04-29T00:31:40.662Z,36.00
2023-04-29T00:32:40.709Z,37.60
2023-04-29T00:33:40.631Z,40.80
2023-04-29T00:34:40.642Z,40.80
2023-04-29T00:35:41.407Z,33.80
2023-04-29T00:36:40.647Z,36.80
2023-04-29T00:37:41.414Z,33.20
2023-04-29T00:38:40.591Z,34.00
2023-04-29T00:39:40.587Z,44.30
2023-04-29T00:40:41.414Z,37.90
2023-04-29T00:41:40.629Z,40.10
2023-04-29T00:42:40.602Z,36.20
2023-04-29T00:43:40.574Z,40.20
2023-04-29T00:44:40.556Z,34.20
2023-04-29T00:45:40.610Z,42.30
2023-04-29T00:46:40.615Z,42.00
2023-04-29T00:47:40.616Z,51.10
2023-04-29T00:48:40.527Z,44.60
2023-04-29T00:49:40.542Z,50.10
2023-04-29T00:50:40.542Z,41.50
2023-04-29T00:51:40.495Z,43.80
2023-04-29T00:52:40.540Z,45.50
2023-04-29T00:53:40.486Z,48.40
2023-04-29T00:54:41.395Z,50.60
2023-04-29T00:55:40.473Z,43.50
2023-04-29T00:56:40.510Z,37.60
2023-04-29T00:57:40.504Z,39.20
2023-04-29T00:58:40.453Z,38.70
2023-04-29T00:59:40.455Z,29.60
2023-04-29T01:00:40.452Z,41.10
2023-04-29T01:01:40.486Z,38.00
2023-04-29T01:02:40.464Z,43.70
2023-04-29T01:03:40.547Z,43.00
2023-04-29T01:04:40.445Z,43.40
2023-04-29T01:05:40.405Z,41.90
2023-04-29T01:06:40.392Z,38.10
2023-04-29T01:07:40.379Z,42.10
2023-04-29T01:08:40.371Z,45.00
2023-04-29T01:09:40.428Z,40.20
2023-04-29T01:10:40.396Z,42.70
2023-04-29T01:11:40.374Z,42.80
2023-04-29T01:12:40.370Z,38.80
2023-04-29T01:13:40.355Z,37.50
2023-04-29T01:14:40.352Z,40.50
2023-04-29T01:15:40.398Z,37.70
2023-04-29T01:16:40.356Z,38.40
2023-04-29T01:17:40.494Z,39.70
2023-04-29T01:18:40.313Z,42.30
2023-04-29T01:19:40.310Z,43.10
2023-04-29T01:20:40.448Z,40.10
2023-04-29T01:21:40.923Z,37.30
2023-04-29T01:22:40.269Z,36.30
2023-04-29T01:23:40.258Z,32.20
2023-04-29T01:24:40.252Z,30.70
2023-04-29T01:25:40.265Z,30.80
2023-04-29T01:26:40.273Z,36.80
2023-04-29T01:27:40.266Z,32.70
2023-04-29T01:28:40.242Z,39.20
2023-04-29T01:29:40.219Z,34.30
2023-04-29T01:30:40.221Z,32.00
2023-04-29T01:31:40.611Z,35.10
2023-04-29T01:32:40.357Z,35.40
2023-04-29T01:33:40.198Z,35.10
2023-04-29T01:34:40.183Z,35.10
2023-04-29T01:35:40.196Z,31.20
2023-04-29T01:36:40.185Z,29.90
2023-04-29T01:37:40.191Z,31.40
2023-04-29T01:38:40.157Z,29.20
2023-04-29T01:39:40.182Z,25.90
2023-04-29T01:40:40.159Z,26.60
2023-04-29T01:41:40.166Z,28.50
2023-04-29T01:42:40.127Z,26.80
2023-04-29T01:43:40.135Z,30.00
2023-04-29T01:44:40.119Z,28.70
2023-04-29T01:45:40.107Z,24.80
2023-04-29T01:46:40.197Z,22.60
2023-04-29T01:47:40.118Z,25.10
2023-04-29T01:48:40.095Z,25.70
2023-04-29T01:49:40.086Z,22.90
2023-04-29T01:50:40.913Z,24.80
2023-04-29T01:51:40.074Z,27.40
2023-04-29T01:52:40.107Z,24.00
2023-04-29T01:53:40.054Z,24.80
2023-04-29T01:54:40.049Z,26.20
2023-04-29T01:55:40.028Z,24.00
2023-04-29T01:56:40.015Z,24.60
2023-04-29T01:57:41.244Z,23.70
2023-04-29T01:58:40.137Z,28.80
2023-04-29T01:59:40.005Z,26.20
2023-04-29T02:00:40.093Z,23.60
2023-04-29T02:01:40.016Z,22.70
2023-04-29T02:02:40.133Z,26.40
2023-04-29T02:03:40.115Z,24.40
2023-04-29T02:04:40.043Z,28.50
2023-04-29T02:05:39.978Z,25.40
2023-04-29T02:06:39.962Z,29.40
2023-04-29T02:07:39.943Z,27.70
2023-04-29T02:08:39.978Z,31.90
2023-04-29T02:09:40.018Z,32.00
2023-04-29T02:10:39.955Z,34.00
2023-04-29T02:11:39.941Z,37.50
2023-04-29T02:12:39.901Z,33.60
2023-04-29T02:13:39.899Z,37.90
2023-04-29T02:14:39.905Z,30.20
2023-04-29T02:15:39.872Z,35.60
2023-04-29T02:16:39.890Z,32.20
2023-04-29T02:17:40.433Z,32.00
2023-04-29T02:18:39.892Z,33.10
2023-04-29T02:19:39.885Z,33.80
2023-04-29T02:20:39.870Z,34.20
2023-04-29T02:21:39.844Z,34.40
2023-04-29T02:22:40.423Z,37.10
2023-04-29T02:23:39.816Z,35.30
2023-04-29T02:24:39.856Z,30.80
2023-04-29T02:25:40.488Z,33.50
2023-04-29T02:26:39.793Z,38.10
2023-04-29T02:27:39.782Z,34.20
2023-04-29T02:28:39.790Z,35.40
2023-04-29T02:29:39.793Z,34.80
2023-04-29T02:30:39.801Z,33.00
2023-04-29T02:31:39.785Z,33.50
2023-04-29T02:32:39.815Z,34.70
2023-04-29T02:33:39.755Z,35.70
2023-04-29T02:34:39.722Z,31.10
2023-04-29T02:35:39.722Z,34.30
2023-04-29T02:36:39.752Z,37.00
2023-04-29T02:37:39.719Z,36.40
2023-04-29T02:38:39.703Z,37.30
2023-04-29T02:39:39.689Z,34.90
2023-04-29T02:40:39.689Z,40.40
2023-04-29T02:41:40.910Z,34.30
2023-04-29T02:42:39.684Z,39.00
2023-04-29T02:43:39.676Z,40.50
2023-04-29T02:44:39.710Z,40.20
2023-04-29T02:45:39.667Z,35.80
2023-04-29T02:46:39.673Z,34.00
2023-04-29T02:47:39.726Z,39.70
2023-04-29T02:48:39.613Z,36.30
2023-04-29T02:49:39.650Z,37.50
2023-04-29T02:50:39.592Z,38.90
2023-04-29T02:51:39.649Z,40.40
2023-04-29T02:52:39.644Z,34.20
2023-04-29T02:53:39.620Z,31.20
2023-04-29T02:54:39.592Z,38.30
2023-04-29T02:55:39.579Z,42.50
2023-04-29T02:56:39.609Z,39.70
2023-04-29T02:57:39.613Z,36.70
2023-04-29T02:58:39.569Z,39.60
2023-04-29T02:59:39.559Z,45.80
2023-04-29T03:00:39.575Z,41.60
2023-04-29T03:01:39.649Z,45.00
2023-04-29T03:02:39.615Z,41.80
2023-04-29T03:03:39.670Z,41.00
2023-04-29T03:04:39.529Z,43.30
2023-04-29T03:05:39.503Z,43.30
2023-04-29T03:06:39.499Z,40.50
2023-04-29T03:07:39.524Z,42.10
2023-04-29T03:08:39.480Z,46.70
2023-04-29T03:09:39.466Z,44.80
2023-04-29T03:10:41.463Z,42.60
2023-04-29T03:11:40.464Z,38.90
2023-04-29T03:12:39.599Z,40.60
2023-04-29T03:13:39.461Z,38.00
2023-04-29T03:14:39.438Z,35.70
2023-04-29T03:15:39.426Z,40.80
2023-04-29T03:16:39.457Z,37.80
2023-04-29T03:17:39.966Z,39.40
2023-04-29T03:18:39.442Z,40.80
2023-04-29T03:19:39.931Z,45.50
2023-04-29T03:20:39.397Z,42.00
2023-04-29T03:21:39.387Z,40.70
2023-04-29T03:22:39.364Z,32.30
2023-04-29T03:23:39.389Z,38.90
2023-04-29T03:24:39.352Z,38.60
2023-04-29T03:25:39.384Z,33.40
2023-04-29T03:26:39.341Z,37.00
2023-04-29T03:27:39.351Z,36.30
2023-04-29T03:28:39.366Z,34.60
2023-04-29T03:29:39.299Z,33.70
2023-04-29T03:30:39.334Z,34.40
2023-04-29T03:31:39.366Z,33.20
2023-04-29T03:32:39.343Z,34.30
2023-04-29T03:33:39.283Z,34.10
2023-04-29T03:34:39.286Z,36.60
2023-04-29T03:35:39.299Z,35.60
2023-04-29T03:36:39.245Z,36.80
2023-04-29T03:37:39.333Z,43.50
2023-04-29T03:38:39.253Z,40.20
2023-04-29T03:39:39.945Z,37.70
2023-04-29T03:40:39.319Z,37.40
2023-04-29T03:41:39.231Z,37.10
2023-04-29T03:42:39.261Z,38.90
2023-04-29T03:43:39.208Z,36.80
2023-04-29T03:44:39.200Z,37.30
2023-04-29T03:45:39.948Z,46.90
2023-04-29T03:46:39.211Z,44.60
2023-04-29T04:02:23.573Z,52.30
2023-04-29T04:03:23.485Z,57.50
2023-04-29T04:04:23.708Z,56.20
2023-04-29T04:05:24.543Z,58.70
2023-04-29T04:06:24.532Z,57.20
2023-04-29T04:07:24.518Z,53.90
2023-04-29T04:08:24.619Z,58.10
2023-04-29T04:09:24.504Z,60.40
2023-04-29T04:10:24.511Z,60.50
2023-04-29T04:11:24.498Z,61.10
2023-04-29T04:12:24.491Z,62.00
2023-04-29T04:13:24.518Z,56.60
2023-04-29T04:14:24.471Z,58.40
2023-04-29T04:15:24.456Z,56.10
2023-04-29T04:16:25.527Z,48.00
2023-04-29T04:17:25.197Z,54.30
2023-04-29T04:18:24.444Z,49.20
2023-04-29T04:19:24.503Z,50.40
2023-04-29T04:20:24.452Z,52.10
2023-04-29T04:21:24.446Z,51.20
2023-04-29T04:22:24.411Z,58.90
2023-04-29T04:23:24.427Z,58.80
2023-04-29T04:24:24.433Z,62.50
2023-04-29T04:25:24.400Z,53.50
2023-04-29T04:26:24.367Z,50.00
2023-04-29T04:27:24.395Z,46.90
2023-04-29T04:28:24.358Z,46.40
2023-04-29T04:29:24.426Z,51.20
2023-04-29T04:30:24.353Z,52.90
2023-04-29T04:31:24.362Z,52.70
2023-04-29T04:32:24.406Z,46.00
2023-04-29T04:33:24.321Z,50.00
2023-04-29T04:34:24.332Z,49.80
2023-04-29T04:35:24.325Z,51.20
2023-04-29T04:36:24.305Z,51.80
2023-04-29T04:37:24.322Z,46.30
2023-04-29T04:38:24.321Z,59.70
2023-04-29T04:39:24.283Z,56.70
2023-04-29T04:40:24.294Z,50.20
2023-04-29T04:41:24.283Z,58.70
2023-04-29T04:42:24.350Z,58.50
2023-04-29T04:43:24.275Z,55.30
2023-04-29T04:44:24.233Z,56.60
2023-04-29T04:45:24.322Z,51.40
2023-04-29T04:46:24.221Z,54.70
2023-04-29T04:47:24.304Z,58.70
2023-04-29T04:48:56.181Z,55.50
2023-04-29T04:49:24.214Z,52.90
2023-04-29T04:50:24.194Z,51.60
2023-04-29T04:51:24.190Z,50.40
2023-04-29T04:52:24.206Z,56.40
2023-04-29T04:53:24.160Z,61.50
2023-04-29T04:54:24.198Z,56.70
2023-04-29T04:55:24.168Z,51.50
2023-04-29T04:56:24.149Z,49.30
2023-04-29T04:57:24.145Z,45.30
2023-04-29T04:58:24.139Z,56.70
2023-04-29T04:59:24.129Z,45.70
2023-04-29T05:00:24.140Z,49.60
2023-04-29T05:01:24.142Z,56.70
2023-04-29T05:02:24.305Z,48.10
2023-04-29T05:03:24.265Z,53.70
2023-04-29T05:04:25.355Z,54.70
2023-04-29T05:05:24.105Z,46.90
2023-04-29T05:06:24.094Z,52.50
2023-04-29T05:07:24.066Z,52.10
2023-04-29T05:08:24.050Z,50.40
2023-04-29T05:09:24.077Z,47.30
2023-04-29T05:10:24.044Z,47.70
2023-04-29T05:11:24.034Z,49.20
2023-04-29T05:12:24.038Z,52.30
2023-04-29T05:13:24.010Z,53.70
2023-04-29T05:14:24.042Z,48.70
2023-04-29T05:15:24.008Z,47.00
2023-04-29T05:16:24.002Z,51.90
2023-04-29T05:17:24.027Z,53.00
2023-04-29T05:18:24.001Z,61.10
2023-04-29T05:19:23.966Z,51.80
2023-04-29T05:20:24.670Z,70.00
2023-04-29T05:21:23.966Z,69.40
2023-04-29T05:22:23.993Z,83.50
2023-04-29T05:23:23.943Z,86.60
2023-04-29T05:24:23.972Z,82.70
2023-04-29T05:25:23.950Z,79.40
2023-04-29T05:26:23.970Z,74.70
2023-04-29T05:27:23.893Z,58.70
2023-04-29T05:28:23.943Z,54.70
2023-04-29T05:29:23.906Z,49.70
2023-04-29T05:30:23.873Z,57.00
2023-04-29T05:31:23.973Z,54.30
2023-04-29T05:32:23.979Z,62.00
2023-04-29T05:33:23.859Z,56.70
2023-04-29T05:34:24.691Z,53.00
2023-04-29T05:35:23.862Z,50.40
2023-04-29T05:36:23.821Z,50.20
2023-04-29T05:37:23.862Z,52.20
2023-04-29T05:38:23.846Z,48.50
2023-04-29T05:39:23.818Z,53.80
2023-04-29T05:40:23.792Z,48.60
2023-04-29T05:41:23.790Z,48.30
2023-04-29T05:42:23.773Z,51.80
2023-04-29T05:43:23.824Z,54.00
2023-04-29T05:44:23.787Z,49.10
2023-04-29T05:45:23.767Z,47.80
2023-04-29T05:46:23.795Z,50.60
2023-04-29T05:47:23.779Z,55.00
2023-04-29T05:48:23.733Z,52.70
2023-04-29T05:49:23.741Z,52.50
2023-04-29T05:50:23.711Z,53.20
2023-04-29T05:51:23.766Z,52.50
2023-04-29T05:52:23.713Z,52.10
2023-04-29T05:53:24.745Z,53.50
2023-04-29T05:54:23.697Z,60.90
2023-04-29T05:55:23.689Z,52.00
2023-04-29T05:56:23.668Z,46.50
2023-04-29T05:57:23.695Z,45.50
2023-04-29T05:58:23.652Z,50.10
2023-04-29T05:59:23.651Z,46.50
2023-04-29T06:00:23.662Z,45.90
2023-04-29T06:01:23.629Z,43.00
2023-04-29T06:02:23.802Z,52.60
2023-04-29T06:03:23.895Z,46.40
2023-04-29T06:04:23.772Z,48.40
2023-04-29T06:05:23.988Z,47.10
2023-04-29T06:06:23.661Z,49.50
2023-04-29T06:07:23.602Z,50.80
2023-04-29T06:08:23.565Z,52.10
2023-04-29T06:09:27.615Z,49.20
2023-04-29T06:10:24.571Z,54.30
2023-04-29T06:11:23.556Z,54.20
2023-04-29T06:12:23.551Z,52.80
2023-04-29T06:13:23.549Z,50.80
2023-04-29T06:14:23.558Z,52.40
2023-04-29T06:15:23.546Z,46.70
2023-04-29T06:16:23.578Z,48.70
2023-04-29T06:17:23.531Z,45.60
2023-04-29T06:18:23.512Z,46.10
2023-04-29T06:19:23.503Z,42.10
2023-04-29T06:20:23.503Z,50.10
2023-04-29T06:21:23.506Z,44.40
2023-04-29T06:22:23.482Z,45.00
2023-04-29T06:23:23.470Z,41.10
2023-04-29T06:24:23.480Z,39.80
2023-04-29T06:25:23.452Z,40.90
2023-04-29T06:26:23.436Z,35.70
2023-04-29T06:27:23.436Z,34.70
2023-04-29T06:28:23.470Z,33.70
2023-04-29T06:29:23.458Z,35.70
2023-04-29T06:30:23.412Z,37.20
2023-04-29T06:31:23.466Z,38.30
2023-04-29T06:32:23.551Z,35.30
2023-04-29T06:33:23.387Z,39.80
2023-04-29T06:34:23.404Z,37.00
2023-04-29T06:35:23.396Z,35.80
2023-04-29T06:36:23.358Z,39.70
2023-04-29T06:37:23.355Z,35.10
2023-04-29T06:38:23.330Z,32.60
2023-04-29T06:39:23.380Z,32.20
2023-04-29T06:40:23.343Z,37.30
2023-04-29T06:41:23.321Z,30.30
2023-04-29T06:42:23.320Z,28.80
2023-04-29T06:43:23.747Z,27.30
2023-04-29T06:44:23.310Z,27.40
2023-04-29T06:45:23.764Z,29.80
2023-04-29T06:46:23.327Z,29.40
2023-04-29T06:47:23.268Z,15.50
2023-04-29T06:48:23.270Z,15.80
2023-04-29T06:49:24.227Z,16.20
2023-04-29T06:50:23.270Z,14.90
2023-04-29T06:51:23.238Z,11.20
2023-04-29T06:52:23.246Z,11.20
2023-04-29T06:53:23.206Z,12.80
2023-04-29T06:54:24.137Z,13.00
2023-04-29T06:55:23.238Z,11.20
2023-04-29T06:56:23.214Z,12.30
2023-04-29T06:57:23.186Z,8.20
2023-04-29T06:58:23.186Z,7.20
2023-04-29T06:59:23.244Z,7.30
2023-04-29T07:00:23.176Z,6.40
2023-04-29T07:01:23.213Z,7.90
2023-04-29T07:02:23.257Z,7.10
2023-04-29T07:03:23.312Z,8.00
2023-04-29T07:04:23.209Z,6.10
2023-04-29T07:05:23.131Z,6.40
2023-04-29T07:06:23.176Z,5.50
2023-04-29T07:07:23.105Z,5.10
2023-04-29T07:08:23.118Z,7.90
2023-04-29T07:09:23.111Z,6.10
2023-04-29T07:10:24.105Z,6.40
2023-04-29T07:11:23.134Z,8.10
2023-04-29T07:12:23.081Z,7.70
2023-04-29T07:13:23.073Z,7.60
2023-04-29T07:14:23.096Z,5.90
2023-04-29T07:15:23.106Z,10.10
2023-04-29T07:16:23.085Z,5.80
2023-04-29T07:17:23.080Z,4.50
2023-04-29T07:18:23.078Z,5.60
2023-04-29T07:19:23.077Z,5.70
2023-04-29T07:20:23.056Z,6.20
2023-04-29T07:21:23.044Z,5.00
2023-04-29T07:22:23.022Z,4.50
2023-04-29T07:23:23.004Z,4.70
2023-04-29T07:24:22.981Z,6.90
2023-04-29T07:25:22.993Z,5.70
2023-04-29T07:26:22.974Z,5.70
2023-04-29T07:27:22.997Z,4.90
2023-04-29T07:28:22.970Z,7.20
2023-04-29T07:29:22.936Z,5.50
2023-04-29T07:30:23.036Z,4.90
2023-04-29T07:31:23.088Z,5.60
2023-04-29T07:32:22.971Z,5.50
2023-04-29T07:33:22.939Z,5.50
2023-04-29T07:34:22.923Z,4.80
2023-04-29T07:35:22.905Z,6.20
2023-04-29T07:36:22.898Z,6.00
2023-04-29T07:37:22.888Z,5.10
2023-04-29T07:38:22.912Z,6.40
2023-04-29T07:39:22.894Z,6.20
2023-04-29T07:40:22.907Z,4.90
2023-04-29T07:41:22.872Z,7.10
2023-04-29T07:42:22.850Z,8.30
2023-04-29T07:43:22.894Z,7.80
2023-04-29T07:44:22.841Z,6.00
2023-04-29T07:45:22.835Z,5.40
2023-04-29T07:46:22.877Z,5.20
2023-04-29T07:47:22.817Z,7.40
2023-04-29T07:48:22.827Z,7.20
2023-04-29T07:49:22.818Z,6.00
2023-04-29T07:50:22.914Z,7.40
2023-04-29T07:51:22.760Z,7.00
2023-04-29T07:52:22.754Z,6.20
2023-04-29T07:53:22.763Z,8.00
2023-04-29T07:54:22.751Z,6.80
2023-04-29T07:55:22.761Z,6.80
2023-04-29T07:56:22.726Z,6.50
2023-04-29T07:57:22.723Z,7.60
2023-04-29T07:58:22.731Z,7.20
2023-04-29T07:59:22.722Z,7.00
2023-04-29T08:00:22.824Z,7.10
2023-04-29T08:01:22.741Z,9.30
2023-04-29T08:02:23.754Z,8.00
2023-04-29T08:03:22.975Z,9.10
2023-04-29T08:04:22.838Z,8.80
2023-04-29T08:05:22.940Z,8.20
2023-04-29T08:06:22.670Z,9.60
2023-04-29T08:07:22.666Z,8.90
2023-04-29T08:08:22.643Z,10.60
2023-04-29T08:09:22.632Z,8.20
2023-04-29T08:10:22.951Z,8.70
2023-04-29T08:11:22.643Z,12.60
2023-04-29T08:12:22.609Z,10.50
2023-04-29T08:13:22.609Z,7.80
2023-04-29T08:14:22.595Z,9.20
2023-04-29T08:15:22.927Z,10.30
2023-04-29T08:16:22.655Z,9.80
2023-04-29T08:17:22.620Z,9.90
2023-04-29T08:18:22.560Z,11.20
2023-04-29T08:19:22.550Z,9.60
2023-04-29T08:20:22.549Z,9.90
2023-04-29T08:21:22.564Z,10.90
2023-04-29T08:22:22.547Z,10.90
2023-04-29T08:23:22.505Z,11.20
2023-04-29T08:24:22.522Z,11.20
2023-04-29T08:25:22.502Z,10.40
2023-04-29T08:26:24.025Z,10.50
2023-04-29T08:27:22.541Z,11.50
2023-04-29T08:28:22.475Z,10.90
2023-04-29T08:29:22.481Z,11.30
2023-04-29T08:30:22.804Z,11.40
2023-04-29T08:31:22.542Z,10.80
2023-04-29T08:32:22.617Z,11.10
2023-04-29T08:33:22.443Z,10.80
2023-04-29T08:34:22.437Z,11.10
2023-04-29T08:35:22.452Z,12.70
2023-04-29T08:36:22.438Z,13.50
2023-04-29T08:37:22.468Z,12.90
2023-04-29T08:38:22.420Z,12.00
2023-04-29T08:39:22.449Z,12.40
2023-04-29T08:40:22.380Z,14.70
2023-04-29T08:41:22.790Z,13.00
2023-04-29T08:42:22.370Z,12.80
2023-04-29T08:43:22.394Z,10.80
2023-04-29T08:44:22.342Z,10.20
2023-04-29T08:45:22.371Z,11.70
2023-04-29T08:46:22.473Z,11.60
2023-04-29T08:47:22.414Z,11.30
2023-04-29T08:48:22.393Z,10.10
2023-04-29T08:49:22.316Z,10.30
2023-04-29T08:50:22.325Z,11.30
2023-04-29T08:51:22.325Z,13.20
2023-04-29T08:52:22.303Z,11.40
2023-04-29T08:53:22.307Z,11.20
2023-04-29T08:54:22.295Z,11.50
2023-04-29T08:55:22.256Z,10.30
2023-04-29T08:56:22.329Z,9.50
2023-04-29T08:57:22.274Z,8.70
2023-04-29T08:58:22.259Z,9.80
2023-04-29T08:59:22.238Z,8.70
2023-04-29T09:00:22.235Z,8.70
2023-04-29T09:01:22.363Z,8.30
2023-04-29T09:02:22.379Z,8.20
2023-04-29T09:03:22.334Z,7.40
2023-04-29T09:04:22.230Z,7.90
2023-04-29T09:05:22.175Z,6.20
2023-04-29T09:06:22.188Z,5.90
2023-04-29T09:07:22.207Z,6.90
2023-04-29T09:08:23.187Z,7.60
2023-04-29T09:09:22.169Z,6.70
2023-04-29T09:10:22.159Z,6.90
2023-04-29T09:11:22.151Z,7.40
2023-04-29T09:12:22.169Z,7.00
2023-04-29T09:13:22.152Z,6.40
2023-04-29T09:14:22.129Z,7.20
2023-04-29T09:15:22.192Z,6.20
2023-04-29T09:16:22.176Z,6.90
2023-04-29T09:17:22.135Z,7.30
2023-04-29T09:18:22.320Z,5.40
2023-04-29T09:19:22.147Z,7.00
2023-04-29T09:20:22.279Z,6.20
2023-04-29T09:21:23.019Z,6.50
2023-04-29T09:22:22.095Z,6.40
2023-04-29T09:23:22.112Z,6.40
2023-04-29T09:24:22.112Z,5.00
2023-04-29T09:25:22.093Z,7.80
2023-04-29T09:26:22.063Z,6.60
2023-04-29T09:27:22.094Z,7.20
2023-04-29T09:28:22.084Z,7.40
2023-04-29T09:29:22.727Z,6.50
2023-04-29T09:30:22.031Z,6.60
2023-04-29T09:31:22.038Z,5.30
2023-04-29T09:32:22.054Z,6.00
2023-04-29T09:33:21.983Z,5.60
2023-04-29T09:34:21.969Z,5.50
2023-04-29T09:35:22.036Z,6.10
2023-04-29T09:36:21.964Z,6.30
2023-04-29T09:37:22.001Z,6.20
2023-04-29T09:38:21.954Z,6.90
2023-04-29T09:39:21.927Z,6.00
2023-04-29T09:40:21.951Z,6.00
2023-04-29T09:41:21.934Z,6.80
2023-04-29T09:42:21.939Z,8.50
2023-04-29T09:43:21.905Z,6.40
2023-04-29T09:44:21.943Z,6.20
2023-04-29T09:45:22.075Z,9.40
2023-04-29T09:46:21.907Z,6.00
2023-04-29T09:47:21.918Z,6.40
2023-04-29T09:48:21.894Z,5.50
2023-04-29T09:49:21.877Z,5.80
2023-04-29T09:50:21.867Z,5.90
2023-04-29T09:51:21.898Z,5.90
2023-04-29T09:52:21.897Z,6.90
2023-04-29T09:53:21.869Z,6.20
2023-04-29T09:54:21.834Z,5.90
2023-04-29T09:55:21.862Z,5.20
2023-04-29T09:56:21.827Z,6.30
2023-04-29T09:57:21.852Z,6.00
2023-04-29T09:58:21.801Z,6.50
2023-04-29T09:59:21.827Z,6.10
2023-04-29T10:00:21.806Z,4.90
2023-04-29T10:01:21.815Z,6.60
2023-04-29T10:02:22.817Z,6.30
2023-04-29T10:03:21.865Z,5.90
2023-04-29T10:04:21.803Z,6.50
2023-04-29T10:05:21.782Z,5.90
2023-04-29T10:06:21.743Z,6.90
2023-04-29T10:07:21.779Z,6.90
2023-04-29T10:08:21.739Z,6.80
2023-04-29T10:09:21.816Z,5.80
2023-04-29T10:10:22.252Z,6.50
2023-04-29T10:11:22.289Z,6.20
2023-04-29T10:12:21.699Z,6.50
2023-04-29T10:13:21.681Z,5.60
2023-04-29T10:14:21.731Z,6.00
2023-04-29T10:15:21.661Z,7.00
2023-04-29T10:16:21.715Z,6.20
2023-04-29T10:17:21.657Z,5.10
2023-04-29T10:18:21.690Z,7.00
2023-04-29T10:19:21.686Z,6.00
2023-04-29T10:20:22.651Z,6.10
2023-04-29T10:21:21.616Z,6.70
2023-04-29T10:22:21.607Z,7.30
2023-04-29T10:23:21.601Z,5.70
2023-04-29T10:24:21.632Z,7.30
2023-04-29T10:25:21.697Z,7.50
2023-04-29T10:26:21.608Z,6.50
2023-04-29T10:27:22.225Z,5.80
2023-04-29T10:28:21.554Z,6.90
2023-04-29T10:29:21.569Z,5.70
2023-04-29T10:30:21.596Z,8.00
2023-04-29T10:31:21.615Z,6.60
2023-04-29T10:32:21.603Z,6.40
2023-04-29T10:33:21.557Z,6.20
2023-04-29T10:34:21.514Z,6.50
2023-04-29T10:35:21.551Z,7.60
2023-04-29T10:36:21.552Z,7.80
2023-04-29T10:37:21.505Z,7.60
2023-04-29T10:38:21.489Z,6.00
2023-04-29T10:39:21.500Z,6.40
2023-04-29T10:40:21.576Z,6.60
2023-04-29T10:41:21.473Z,6.50
2023-04-29T10:42:21.462Z,5.90
2023-04-29T10:43:21.470Z,7.40
2023-04-29T10:44:21.491Z,7.30
2023-04-29T10:45:21.738Z,6.40
2023-04-29T10:46:21.559Z,6.10
2023-04-29T10:47:21.599Z,6.80
2023-04-29T10:48:22.114Z,8.20
2023-04-29T10:49:22.490Z,8.70
2023-04-29T10:50:21.389Z,8.20
2023-04-29T10:51:53.337Z,7.50
2023-04-29T10:52:22.256Z,6.80
2023-04-29T10:53:21.378Z,7.90
2023-04-29T10:54:21.385Z,6.50
2023-04-29T10:55:21.353Z,7.20
2023-04-29T10:56:21.410Z,5.70
2023-04-29T10:57:21.349Z,6.50
2023-04-29T10:58:21.365Z,8.10
2023-04-29T10:59:21.324Z,6.90
2023-04-29T11:00:21.574Z,6.80
2023-04-29T11:01:21.409Z,6.70
2023-04-29T11:02:21.359Z,6.50
2023-04-29T11:03:21.400Z,7.10
2023-04-29T11:04:21.340Z,6.50
2023-04-29T11:05:21.310Z,7.50
2023-04-29T11:06:21.294Z,6.60
2023-04-29T11:07:22.266Z,7.50
2023-04-29T11:08:21.248Z,7.10
2023-04-29T11:09:21.278Z,7.40
2023-04-29T11:10:21.239Z,6.10
2023-04-29T11:11:21.250Z,7.70
2023-04-29T11:12:22.613Z,7.10
2023-04-29T11:13:21.218Z,6.80
2023-04-29T11:14:21.214Z,8.20
2023-04-29T11:15:21.200Z,7.10
2023-04-29T11:16:21.217Z,7.70
2023-04-29T11:17:21.447Z,7.30
2023-04-29T11:18:21.180Z,9.40
2023-04-29T11:19:21.224Z,8.90
2023-04-29T11:20:21.310Z,8.50
2023-04-29T11:21:21.159Z,7.40
2023-04-29T11:22:21.206Z,7.50
2023-04-29T11:23:21.164Z,11.00
2023-04-29T11:24:21.157Z,8.80
2023-04-29T11:25:21.138Z,10.80
2023-04-29T11:26:21.137Z,11.60
2023-04-29T11:27:21.111Z,8.80
2023-04-29T11:28:21.142Z,8.10
2023-04-29T11:29:21.098Z,10.00
2023-04-29T11:30:21.132Z,7.70
2023-04-29T11:31:21.239Z,7.50
2023-04-29T11:32:21.127Z,8.90
2023-04-29T11:33:21.157Z,7.80
2023-04-29T11:34:21.055Z,6.80
2023-04-29T11:35:21.062Z,7.30
2023-04-29T11:36:21.056Z,7.90
2023-04-29T11:37:21.035Z,8.30
2023-04-29T11:38:21.050Z,6.60
2023-04-29T11:39:21.262Z,7.00
2023-04-29T11:40:21.574Z,8.10
2023-04-29T11:41:21.003Z,7.70
2023-04-29T11:42:21.039Z,7.50
2023-04-29T11:43:20.985Z,10.60
2023-04-29T11:44:20.973Z,8.10
2023-04-29T11:45:20.988Z,7.60
2023-04-29T11:46:21.029Z,6.80
2023-04-29T11:47:20.979Z,8.00
2023-04-29T11:48:20.960Z,7.80
2023-04-29T11:49:20.926Z,9.30
2023-04-29T11:50:21.073Z,8.50
2023-04-29T11:51:20.931Z,8.40
2023-04-29T11:52:20.900Z,7.60
2023-04-29T11:53:20.930Z,8.20
2023-04-29T11:54:20.929Z,8.20
2023-04-29T11:55:20.952Z,8.80
2023-04-29T11:56:20.888Z,8.50
2023-04-29T11:57:20.904Z,8.80
2023-04-29T11:58:20.909Z,10.30
2023-04-29T11:59:20.873Z,13.00
2023-04-29T12:00:20.867Z,9.40
2023-04-29T12:01:20.887Z,9.40
2023-04-29T12:02:21.681Z,10.40
2023-04-29T12:03:21.050Z,10.00
2023-04-29T12:04:21.094Z,11.20
2023-04-29T12:05:21.014Z,11.30
2023-04-29T12:06:20.813Z,10.80
2023-04-29T12:07:20.830Z,12.10
2023-04-29T12:08:20.782Z,10.70
2023-04-29T12:09:20.781Z,12.20
2023-04-29T12:10:20.808Z,12.20
2023-04-29T12:11:20.773Z,14.50
2023-04-29T12:12:20.779Z,12.00
2023-04-29T12:13:20.764Z,15.00
2023-04-29T12:14:20.780Z,16.10
2023-04-29T12:15:20.740Z,20.20
2023-04-29T12:16:20.746Z,17.90
2023-04-29T12:17:20.708Z,16.30
2023-04-29T12:18:20.718Z,15.80
2023-04-29T12:19:20.709Z,14.20
2023-04-29T12:20:20.988Z,16.30
2023-04-29T12:21:20.762Z,13.90
2023-04-29T12:22:20.676Z,17.70
2023-04-29T12:23:20.661Z,15.40
2023-04-29T12:24:20.666Z,13.70
2023-04-29T12:25:20.678Z,15.00
2023-04-29T12:26:20.809Z,12.70
2023-04-29T12:27:20.659Z,14.20
2023-04-29T12:28:20.629Z,11.70
2023-04-29T12:29:20.637Z,11.70
2023-04-29T12:30:20.629Z,13.50
2023-04-29T12:31:21.413Z,14.40
2023-04-29T12:32:20.630Z,13.60
2023-04-29T12:33:21.620Z,12.20
2023-04-29T12:34:21.117Z,13.00
2023-04-29T12:35:20.589Z,11.80
2023-04-29T12:36:20.561Z,11.80
2023-04-29T12:37:20.566Z,12.60
2023-04-29T12:38:20.605Z,15.10
2023-04-29T12:39:20.579Z,16.10
2023-04-29T12:40:20.874Z,14.20
2023-04-29T12:41:20.546Z,14.70
2023-04-29T12:42:20.555Z,13.50
2023-04-29T12:43:20.545Z,11.80
2023-04-29T12:44:20.587Z,13.70
2023-04-29T12:45:20.516Z,11.80
2023-04-29T12:46:20.520Z,13.40
2023-04-29T12:47:20.518Z,13.20
2023-04-29T12:48:29.886Z,11.50
2023-04-29T12:49:22.524Z,12.10
2023-04-29T12:50:20.455Z,13.20
2023-04-29T12:51:20.471Z,12.60
2023-04-29T12:52:20.456Z,13.00
2023-04-29T12:53:20.427Z,13.10
2023-04-29T12:54:20.441Z,11.10
2023-04-29T12:55:20.420Z,13.00
2023-04-29T12:56:20.398Z,15.00
2023-04-29T12:57:20.406Z,13.40
2023-04-29T12:58:20.405Z,13.30
2023-04-29T12:59:20.425Z,14.80
2023-04-29T13:00:20.353Z,12.60
2023-04-29T13:01:21.457Z,14.10
2023-04-29T13:02:21.020Z,13.90
2023-04-29T13:03:22.265Z,11.80
2023-04-29T13:04:21.552Z,12.00
2023-04-29T13:05:20.333Z,15.30
2023-04-29T13:06:20.394Z,13.00
2023-04-29T13:07:20.330Z,14.10
2023-04-29T13:08:20.342Z,13.70
2023-04-29T13:09:20.309Z,14.40
2023-04-29T13:10:20.294Z,14.30
2023-04-29T13:11:20.314Z,14.80
2023-04-29T13:12:20.301Z,13.70
2023-04-29T13:13:20.273Z,12.90
2023-04-29T13:14:20.301Z,12.70
2023-04-29T13:15:21.276Z,12.70